sensor_id;sensor_type;location;lat;lon;timestamp;P1;durP1;ratioP1;P2;durP2;ratioP2
69714;SDS011;56981;53.532;49.398;2022-10-20T00:01:39;2.65;;;1.98;;
69714;SDS011;56981;53.532;49.398;2022-10-20T00:04:10;3.63;;;1.90;;
69714;SDS011;56981;53.532;49.398;2022-10-20T00:06:42;3.40;;;1.88;;
69714;SDS011;56981;53.532;49.398;2022-10-20T00:09:13;2.47;;;2.00;;
69714;SDS011;56981;53.532;49.398;2022-10-20T00:11:44;3.25;;;2.30;;
69714;SDS011;56981;53.532;49.398;2022-10-20T00:14:16;4.57;;;2.95;;
69714;SDS011;56981;53.532;49.398;2022-10-20T00:16:47;2.70;;;1.85;;
69714;SDS011;56981;53.532;49.398;2022-10-20T00:19:19;2.38;;;2.08;;
69714;SDS011;56981;53.532;49.398;2022-10-20T00:21:50;3.35;;;2.10;;
69714;SDS011;56981;53.532;49.398;2022-10-20T00:24:21;3.42;;;2.20;;
69714;SDS011;56981;53.532;49.398;2022-10-20T00:26:52;4.05;;;2.80;;
69714;SDS011;56981;53.532;49.398;2022-10-20T00:29:24;7.03;;;4.38;;
69714;SDS011;56981;53.532;49.398;2022-10-20T00:31:55;6.85;;;4.10;;
69714;SDS011;56981;53.532;49.398;2022-10-20T00:34:26;6.57;;;4.18;;
69714;SDS011;56981;53.532;49.398;2022-10-20T00:36:57;7.32;;;4.55;;
69714;SDS011;56981;53.532;49.398;2022-10-20T00:39:28;6.55;;;4.03;;
69714;SDS011;56981;53.532;49.398;2022-10-20T00:42:03;5.47;;;3.50;;
69714;SDS011;56981;53.532;49.398;2022-10-20T00:50:15;6.78;;;3.10;;
69714;SDS011;56981;53.532;49.398;2022-10-20T00:52:51;6.60;;;3.20;;
69714;SDS011;56981;53.532;49.398;2022-10-20T00:55:28;6.45;;;2.80;;
69714;SDS011;56981;53.532;49.398;2022-10-20T00:58:02;5.32;;;2.60;;
69714;SDS011;56981;53.532;49.398;2022-10-20T01:00:35;2.80;;;2.22;;
69714;SDS011;56981;53.532;49.398;2022-10-20T01:03:10;6.18;;;2.58;;
69714;SDS011;56981;53.532;49.398;2022-10-20T01:05:47;6.45;;;2.20;;
69714;SDS011;56981;53.532;49.398;2022-10-20T01:08:19;4.00;;;2.05;;
69714;SDS011;56981;53.532;49.398;2022-10-20T01:11:00;3.80;;;1.83;;
69714;SDS011;56981;53.532;49.398;2022-10-20T01:16:52;3.45;;;2.03;;
69714;SDS011;56981;53.532;49.398;2022-10-20T01:19:42;2.85;;;2.00;;
69714;SDS011;56981;53.532;49.398;2022-10-20T01:25:37;3.85;;;2.10;;
69714;SDS011;56981;53.532;49.398;2022-10-20T01:31:21;4.10;;;2.45;;
69714;SDS011;56981;53.532;49.398;2022-10-20T01:34:07;3.17;;;2.15;;
69714;SDS011;56981;53.532;49.398;2022-10-20T01:39:42;4.30;;;2.53;;
69714;SDS011;56981;53.532;49.398;2022-10-20T01:42:27;4.78;;;2.40;;
69714;SDS011;56981;53.532;49.398;2022-10-20T01:45:02;3.55;;;2.47;;
69714;SDS011;56981;53.532;49.398;2022-10-20T01:47:35;2.75;;;2.15;;
69714;SDS011;56981;53.532;49.398;2022-10-20T01:50:07;4.40;;;2.67;;
69714;SDS011;56981;53.532;49.398;2022-10-20T01:52:40;4.22;;;2.47;;
69714;SDS011;56981;53.532;49.398;2022-10-20T01:55:12;3.03;;;2.35;;
69714;SDS011;56981;53.532;49.398;2022-10-20T01:57:53;3.28;;;2.30;;
69714;SDS011;56981;53.532;49.398;2022-10-20T02:00:46;2.72;;;2.30;;
69714;SDS011;56981;53.532;49.398;2022-10-20T02:06:33;3.85;;;2.40;;
69714;SDS011;56981;53.532;49.398;2022-10-20T02:09:18;3.88;;;2.17;;
69714;SDS011;56981;53.532;49.398;2022-10-20T02:14:37;2.60;;;2.10;;
69714;SDS011;56981;53.532;49.398;2022-10-20T02:17:09;4.72;;;2.40;;
69714;SDS011;56981;53.532;49.398;2022-10-20T02:19:45;3.65;;;2.60;;
69714;SDS011;56981;53.532;49.398;2022-10-20T02:22:19;3.70;;;2.38;;
69714;SDS011;56981;53.532;49.398;2022-10-20T02:24:52;4.10;;;2.42;;
69714;SDS011;56981;53.532;49.398;2022-10-20T02:27:24;6.72;;;2.60;;
69714;SDS011;56981;53.532;49.398;2022-10-20T02:30:10;4.25;;;2.45;;
69714;SDS011;56981;53.532;49.398;2022-10-20T02:32:45;3.65;;;2.47;;
69714;SDS011;56981;53.532;49.398;2022-10-20T02:35:26;3.97;;;2.33;;
69714;SDS011;56981;53.532;49.398;2022-10-20T02:38:00;4.20;;;2.83;;
69714;SDS011;56981;53.532;49.398;2022-10-20T02:40:32;8.35;;;5.07;;
69714;SDS011;56981;53.532;49.398;2022-10-20T02:43:03;5.40;;;2.38;;
69714;SDS011;56981;53.532;49.398;2022-10-20T02:45:35;3.65;;;2.13;;
69714;SDS011;56981;53.532;49.398;2022-10-20T02:48:06;3.78;;;2.53;;
69714;SDS011;56981;53.532;49.398;2022-10-20T02:50:40;3.80;;;2.15;;
69714;SDS011;56981;53.532;49.398;2022-10-20T02:53:11;3.63;;;2.92;;
69714;SDS011;56981;53.532;49.398;2022-10-20T02:55:42;5.82;;;2.50;;
69714;SDS011;56981;53.532;49.398;2022-10-20T02:58:14;4.90;;;2.65;;
69714;SDS011;56981;53.532;49.398;2022-10-20T03:00:45;3.85;;;2.30;;
69714;SDS011;56981;53.532;49.398;2022-10-20T03:03:18;3.30;;;2.15;;
69714;SDS011;56981;53.532;49.398;2022-10-20T03:05:49;4.82;;;2.47;;
69714;SDS011;56981;53.532;49.398;2022-10-20T03:08:21;6.10;;;2.80;;
69714;SDS011;56981;53.532;49.398;2022-10-20T03:10:52;5.57;;;2.22;;
69714;SDS011;56981;53.532;49.398;2022-10-20T03:13:24;8.25;;;2.78;;
69714;SDS011;56981;53.532;49.398;2022-10-20T03:15:55;6.97;;;2.80;;
69714;SDS011;56981;53.532;49.398;2022-10-20T03:18:26;7.97;;;3.00;;
69714;SDS011;56981;53.532;49.398;2022-10-20T03:20:58;4.90;;;2.75;;
69714;SDS011;56981;53.532;49.398;2022-10-20T03:23:29;4.93;;;2.75;;
69714;SDS011;56981;53.532;49.398;2022-10-20T03:26:01;8.13;;;3.58;;
69714;SDS011;56981;53.532;49.398;2022-10-20T03:28:34;7.18;;;3.00;;
69714;SDS011;56981;53.532;49.398;2022-10-20T03:31:05;5.93;;;3.05;;
69714;SDS011;56981;53.532;49.398;2022-10-20T03:33:37;4.55;;;2.70;;
69714;SDS011;56981;53.532;49.398;2022-10-20T03:36:08;8.07;;;3.50;;
69714;SDS011;56981;53.532;49.398;2022-10-20T03:38:40;6.82;;;3.30;;
69714;SDS011;56981;53.532;49.398;2022-10-20T03:41:15;7.00;;;3.40;;
69714;SDS011;56981;53.532;49.398;2022-10-20T03:43:46;8.82;;;2.95;;
69714;SDS011;56981;53.532;49.398;2022-10-20T03:46:17;8.13;;;3.55;;
69714;SDS011;56981;53.532;49.398;2022-10-20T03:48:49;9.57;;;3.75;;
69714;SDS011;56981;53.532;49.398;2022-10-20T03:51:20;10.82;;;4.10;;
69714;SDS011;56981;53.532;49.398;2022-10-20T03:53:51;10.05;;;4.63;;
69714;SDS011;56981;53.532;49.398;2022-10-20T03:56:22;12.23;;;4.63;;
69714;SDS011;56981;53.532;49.398;2022-10-20T03:58:54;12.30;;;4.88;;
69714;SDS011;56981;53.532;49.398;2022-10-20T04:01:31;7.47;;;4.05;;
69714;SDS011;56981;53.532;49.398;2022-10-20T04:04:05;7.55;;;3.63;;
69714;SDS011;56981;53.532;49.398;2022-10-20T04:06:37;7.60;;;3.40;;
69714;SDS011;56981;53.532;49.398;2022-10-20T04:09:08;10.00;;;4.18;;
69714;SDS011;56981;53.532;49.398;2022-10-20T04:11:39;6.53;;;4.03;;
69714;SDS011;56981;53.532;49.398;2022-10-20T04:14:11;6.65;;;3.17;;
69714;SDS011;56981;53.532;49.398;2022-10-20T04:16:42;3.88;;;3.00;;
69714;SDS011;56981;53.532;49.398;2022-10-20T04:19:13;4.28;;;3.03;;
69714;SDS011;56981;53.532;49.398;2022-10-20T04:21:44;5.35;;;3.25;;
69714;SDS011;56981;53.532;49.398;2022-10-20T04:24:16;4.43;;;2.85;;
69714;SDS011;56981;53.532;49.398;2022-10-20T04:26:47;6.10;;;2.97;;
69714;SDS011;56981;53.532;49.398;2022-10-20T04:29:18;4.43;;;3.08;;
69714;SDS011;56981;53.532;49.398;2022-10-20T04:31:50;4.80;;;3.30;;
69714;SDS011;56981;53.532;49.398;2022-10-20T04:34:21;7.47;;;3.10;;
69714;SDS011;56981;53.532;49.398;2022-10-20T04:36:53;4.53;;;2.78;;
69714;SDS011;56981;53.532;49.398;2022-10-20T04:39:24;7.93;;;3.40;;
69714;SDS011;56981;53.532;49.398;2022-10-20T04:41:56;6.78;;;3.83;;
69714;SDS011;56981;53.532;49.398;2022-10-20T04:44:27;5.22;;;3.70;;
69714;SDS011;56981;53.532;49.398;2022-10-20T04:46:58;8.18;;;3.97;;
69714;SDS011;56981;53.532;49.398;2022-10-20T04:49:29;4.85;;;3.22;;
69714;SDS011;56981;53.532;49.398;2022-10-20T04:52:01;5.28;;;3.40;;
69714;SDS011;56981;53.532;49.398;2022-10-20T04:54:33;4.90;;;3.40;;
69714;SDS011;56981;53.532;49.398;2022-10-20T04:57:04;6.45;;;3.30;;
69714;SDS011;56981;53.532;49.398;2022-10-20T04:59:36;6.35;;;4.15;;
69714;SDS011;56981;53.532;49.398;2022-10-20T05:02:07;5.18;;;3.45;;
69714;SDS011;56981;53.532;49.398;2022-10-20T05:04:38;5.07;;;3.13;;
69714;SDS011;56981;53.532;49.398;2022-10-20T05:07:09;5.40;;;3.67;;
69714;SDS011;56981;53.532;49.398;2022-10-20T05:09:41;5.93;;;3.80;;
69714;SDS011;56981;53.532;49.398;2022-10-20T05:12:12;4.88;;;3.25;;
69714;SDS011;56981;53.532;49.398;2022-10-20T05:14:44;6.63;;;3.85;;
69714;SDS011;56981;53.532;49.398;2022-10-20T05:17:15;5.55;;;3.25;;
69714;SDS011;56981;53.532;49.398;2022-10-20T05:19:46;4.85;;;3.80;;
69714;SDS011;56981;53.532;49.398;2022-10-20T05:22:17;5.95;;;3.58;;
69714;SDS011;56981;53.532;49.398;2022-10-20T05:24:49;5.07;;;3.35;;
69714;SDS011;56981;53.532;49.398;2022-10-20T05:27:20;6.53;;;3.40;;
69714;SDS011;56981;53.532;49.398;2022-10-20T05:29:51;6.15;;;4.13;;
69714;SDS011;56981;53.532;49.398;2022-10-20T05:32:23;5.70;;;3.53;;
69714;SDS011;56981;53.532;49.398;2022-10-20T05:34:54;6.55;;;3.65;;
69714;SDS011;56981;53.532;49.398;2022-10-20T05:37:25;6.00;;;3.45;;
69714;SDS011;56981;53.532;49.398;2022-10-20T05:39:56;6.40;;;3.80;;
69714;SDS011;56981;53.532;49.398;2022-10-20T05:42:29;5.40;;;3.63;;
69714;SDS011;56981;53.532;49.398;2022-10-20T05:45:00;4.18;;;2.72;;
69714;SDS011;56981;53.532;49.398;2022-10-20T05:47:32;4.97;;;3.33;;
69714;SDS011;56981;53.532;49.398;2022-10-20T05:50:04;4.90;;;3.40;;
69714;SDS011;56981;53.532;49.398;2022-10-20T05:52:35;6.95;;;4.13;;
69714;SDS011;56981;53.532;49.398;2022-10-20T05:55:07;5.65;;;3.42;;
69714;SDS011;56981;53.532;49.398;2022-10-20T05:57:39;5.10;;;3.40;;
69714;SDS011;56981;53.532;49.398;2022-10-20T06:00:10;4.78;;;3.42;;
69714;SDS011;56981;53.532;49.398;2022-10-20T06:02:42;6.38;;;3.78;;
69714;SDS011;56981;53.532;49.398;2022-10-20T06:05:13;4.22;;;3.03;;
69714;SDS011;56981;53.532;49.398;2022-10-20T06:07:44;5.38;;;3.30;;
69714;SDS011;56981;53.532;49.398;2022-10-20T06:10:16;5.63;;;4.07;;
69714;SDS011;56981;53.532;49.398;2022-10-20T06:12:47;7.18;;;4.10;;
69714;SDS011;56981;53.532;49.398;2022-10-20T06:15:18;6.72;;;5.03;;
69714;SDS011;56981;53.532;49.398;2022-10-20T06:17:49;4.75;;;3.97;;
69714;SDS011;56981;53.532;49.398;2022-10-20T06:20:21;7.43;;;3.97;;
69714;SDS011;56981;53.532;49.398;2022-10-20T06:22:52;6.68;;;4.25;;
69714;SDS011;56981;53.532;49.398;2022-10-20T06:25:23;4.53;;;3.53;;
69714;SDS011;56981;53.532;49.398;2022-10-20T06:27:54;5.13;;;3.75;;
69714;SDS011;56981;53.532;49.398;2022-10-20T06:30:26;5.07;;;3.67;;
69714;SDS011;56981;53.532;49.398;2022-10-20T06:32:57;7.00;;;4.10;;
69714;SDS011;56981;53.532;49.398;2022-10-20T06:35:29;4.70;;;4.22;;
69714;SDS011;56981;53.532;49.398;2022-10-20T06:37:56;7.97;;;4.60;;
69714;SDS011;56981;53.532;49.398;2022-10-20T06:40:22;9.73;;;4.13;;
69714;SDS011;56981;53.532;49.398;2022-10-20T06:42:48;9.02;;;4.93;;
69714;SDS011;56981;53.532;49.398;2022-10-20T06:45:15;11.10;;;5.57;;
69714;SDS011;56981;53.532;49.398;2022-10-20T06:47:41;10.23;;;5.32;;
69714;SDS011;56981;53.532;49.398;2022-10-20T06:50:07;6.55;;;4.35;;
69714;SDS011;56981;53.532;49.398;2022-10-20T06:52:34;9.48;;;3.97;;
69714;SDS011;56981;53.532;49.398;2022-10-20T06:55:00;4.05;;;2.58;;
69714;SDS011;56981;53.532;49.398;2022-10-20T06:57:29;3.25;;;2.75;;
69714;SDS011;56981;53.532;49.398;2022-10-20T06:59:58;5.78;;;3.25;;
69714;SDS011;56981;53.532;49.398;2022-10-20T07:02:24;5.38;;;3.90;;
69714;SDS011;56981;53.532;49.398;2022-10-20T07:04:50;3.80;;;3.20;;
69714;SDS011;56981;53.532;49.398;2022-10-20T07:07:17;3.88;;;2.90;;
69714;SDS011;56981;53.532;49.398;2022-10-20T07:09:43;3.38;;;2.75;;
69714;SDS011;56981;53.532;49.398;2022-10-20T07:12:09;4.05;;;2.70;;
69714;SDS011;56981;53.532;49.398;2022-10-20T07:14:36;4.05;;;2.60;;
69714;SDS011;56981;53.532;49.398;2022-10-20T07:17:02;4.50;;;2.33;;
69714;SDS011;56981;53.532;49.398;2022-10-20T07:19:29;3.97;;;2.60;;
69714;SDS011;56981;53.532;49.398;2022-10-20T07:21:58;5.90;;;2.75;;
69714;SDS011;56981;53.532;49.398;2022-10-20T07:24:25;4.05;;;2.80;;
69714;SDS011;56981;53.532;49.398;2022-10-20T07:26:51;4.88;;;2.78;;
69714;SDS011;56981;53.532;49.398;2022-10-20T07:29:18;4.65;;;3.00;;
69714;SDS011;56981;53.532;49.398;2022-10-20T07:31:45;4.93;;;2.83;;
69714;SDS011;56981;53.532;49.398;2022-10-20T07:34:14;4.43;;;3.53;;
69714;SDS011;56981;53.532;49.398;2022-10-20T07:36:42;6.43;;;3.55;;
69714;SDS011;56981;53.532;49.398;2022-10-20T07:39:10;4.85;;;3.40;;
69714;SDS011;56981;53.532;49.398;2022-10-20T07:41:38;6.13;;;3.38;;
69714;SDS011;56981;53.532;49.398;2022-10-20T07:44:05;6.40;;;3.85;;
69714;SDS011;56981;53.532;49.398;2022-10-20T07:46:32;5.57;;;3.03;;
69714;SDS011;56981;53.532;49.398;2022-10-20T07:48:58;4.10;;;2.90;;
69714;SDS011;56981;53.532;49.398;2022-10-20T07:51:26;3.58;;;2.72;;
69714;SDS011;56981;53.532;49.398;2022-10-20T07:53:56;4.05;;;2.67;;
69714;SDS011;56981;53.532;49.398;2022-10-20T07:56:26;4.30;;;3.35;;
69714;SDS011;56981;53.532;49.398;2022-10-20T07:58:54;4.57;;;3.05;;
69714;SDS011;56981;53.532;49.398;2022-10-20T08:01:21;3.17;;;2.65;;
69714;SDS011;56981;53.532;49.398;2022-10-20T08:03:47;6.47;;;3.00;;
69714;SDS011;56981;53.532;49.398;2022-10-20T08:06:14;3.78;;;2.78;;
69714;SDS011;56981;53.532;49.398;2022-10-20T08:08:40;3.95;;;2.83;;
69714;SDS011;56981;53.532;49.398;2022-10-20T08:11:07;7.45;;;3.38;;
69714;SDS011;56981;53.532;49.398;2022-10-20T08:13:33;2.83;;;2.25;;
69714;SDS011;56981;53.532;49.398;2022-10-20T08:16:00;5.55;;;2.63;;
69714;SDS011;56981;53.532;49.398;2022-10-20T08:18:27;6.10;;;3.22;;
69714;SDS011;56981;53.532;49.398;2022-10-20T08:21:18;3.05;;;2.17;;
69714;SDS011;56981;53.532;49.398;2022-10-20T08:23:53;4.65;;;2.55;;
69714;SDS011;56981;53.532;49.398;2022-10-20T08:26:21;4.50;;;2.60;;
69714;SDS011;56981;53.532;49.398;2022-10-20T08:28:50;4.60;;;2.95;;
69714;SDS011;56981;53.532;49.398;2022-10-20T08:31:17;5.78;;;3.80;;
69714;SDS011;56981;53.532;49.398;2022-10-20T08:33:44;5.28;;;2.55;;
69714;SDS011;56981;53.532;49.398;2022-10-20T08:36:12;3.75;;;2.70;;
69714;SDS011;56981;53.532;49.398;2022-10-20T08:38:40;3.45;;;2.70;;
69714;SDS011;56981;53.532;49.398;2022-10-20T08:41:12;3.55;;;2.40;;
69714;SDS011;56981;53.532;49.398;2022-10-20T08:43:43;3.67;;;2.95;;
69714;SDS011;56981;53.532;49.398;2022-10-20T08:46:15;3.17;;;2.20;;
69714;SDS011;56981;53.532;49.398;2022-10-20T08:48:43;3.95;;;2.65;;
69714;SDS011;56981;53.532;49.398;2022-10-20T08:51:19;8.30;;;2.80;;
69714;SDS011;56981;53.532;49.398;2022-10-20T08:53:48;2.72;;;2.40;;
69714;SDS011;56981;53.532;49.398;2022-10-20T08:56:16;3.88;;;2.50;;
69714;SDS011;56981;53.532;49.398;2022-10-20T08:58:47;3.15;;;2.60;;
69714;SDS011;56981;53.532;49.398;2022-10-20T09:01:21;2.83;;;2.13;;
69714;SDS011;56981;53.532;49.398;2022-10-20T09:03:53;2.85;;;2.30;;
69714;SDS011;56981;53.532;49.398;2022-10-20T09:06:22;3.13;;;2.20;;
69714;SDS011;56981;53.532;49.398;2022-10-20T09:08:49;2.50;;;2.10;;
69714;SDS011;56981;53.532;49.398;2022-10-20T09:11:17;3.10;;;2.05;;
69714;SDS011;56981;53.532;49.398;2022-10-20T09:13:47;4.15;;;3.28;;
69714;SDS011;56981;53.532;49.398;2022-10-20T09:16:30;7.47;;;3.22;;
69714;SDS011;56981;53.532;49.398;2022-10-20T09:21:30;8.52;;;5.93;;
69714;SDS011;56981;53.532;49.398;2022-10-20T09:23:59;4.10;;;3.40;;
69714;SDS011;56981;53.532;49.398;2022-10-20T09:26:42;5.70;;;4.38;;
69714;SDS011;56981;53.532;49.398;2022-10-20T09:29:14;3.92;;;3.00;;
69714;SDS011;56981;53.532;49.398;2022-10-20T09:36:47;2.83;;;1.92;;
69714;SDS011;56981;53.532;49.398;2022-10-20T09:39:17;4.03;;;2.97;;
69714;SDS011;56981;53.532;49.398;2022-10-20T09:41:48;3.88;;;3.28;;
69714;SDS011;56981;53.532;49.398;2022-10-20T09:44:19;4.47;;;3.42;;
69714;SDS011;56981;53.532;49.398;2022-10-20T09:46:51;9.90;;;7.03;;
69714;SDS011;56981;53.532;49.398;2022-10-20T09:49:22;5.15;;;3.75;;
69714;SDS011;56981;53.532;49.398;2022-10-20T09:52:02;10.65;;;9.35;;
69714;SDS011;56981;53.532;49.398;2022-10-20T09:54:39;9.45;;;7.40;;
69714;SDS011;56981;53.532;49.398;2022-10-20T09:57:06;6.75;;;5.05;;
69714;SDS011;56981;53.532;49.398;2022-10-20T09:59:43;12.05;;;6.07;;
69714;SDS011;56981;53.532;49.398;2022-10-20T10:04:42;5.03;;;4.03;;
69714;SDS011;56981;53.532;49.398;2022-10-20T10:12:26;6.75;;;5.88;;
69714;SDS011;56981;53.532;49.398;2022-10-20T10:14:56;6.13;;;5.20;;
69714;SDS011;56981;53.532;49.398;2022-10-20T10:17:28;5.38;;;3.10;;
69714;SDS011;56981;53.532;49.398;2022-10-20T10:20:00;3.13;;;2.60;;
69714;SDS011;56981;53.532;49.398;2022-10-20T10:22:30;1.73;;;1.40;;
69714;SDS011;56981;53.532;49.398;2022-10-20T10:24:57;1.70;;;1.30;;
69714;SDS011;56981;53.532;49.398;2022-10-20T10:27:30;1.52;;;1.17;;
69714;SDS011;56981;53.532;49.398;2022-10-20T10:30:24;1.20;;;1.10;;
69714;SDS011;56981;53.532;49.398;2022-10-20T10:32:45;1.45;;;1.30;;
69714;SDS011;56981;53.532;49.398;2022-10-20T10:35:23;2.78;;;1.52;;
69714;SDS011;56981;53.532;49.398;2022-10-20T10:37:52;1.60;;;1.48;;
69714;SDS011;56981;53.532;49.398;2022-10-20T10:45:42;2.60;;;1.75;;
69714;SDS011;56981;53.532;49.398;2022-10-20T10:51:21;1.95;;;1.50;;
69714;SDS011;56981;53.532;49.398;2022-10-20T10:54:34;1.60;;;1.40;;
69714;SDS011;56981;53.532;49.398;2022-10-20T10:57:28;2.70;;;1.50;;
69714;SDS011;56981;53.532;49.398;2022-10-20T10:59:57;2.72;;;1.75;;
69714;SDS011;56981;53.532;49.398;2022-10-20T11:05:37;1.85;;;1.20;;
69714;SDS011;56981;53.532;49.398;2022-10-20T11:11:21;1.92;;;1.20;;
69714;SDS011;56981;53.532;49.398;2022-10-20T11:17:10;2.60;;;1.13;;
69714;SDS011;56981;53.532;49.398;2022-10-20T11:22:45;1.90;;;1.45;;
69714;SDS011;56981;53.532;49.398;2022-10-20T11:25:32;2.38;;;1.30;;
69714;SDS011;56981;53.532;49.398;2022-10-20T11:28:11;1.73;;;1.40;;
69714;SDS011;56981;53.532;49.398;2022-10-20T11:30:56;2.28;;;1.23;;
69714;SDS011;56981;53.532;49.398;2022-10-20T11:33:25;3.47;;;1.90;;
69714;SDS011;56981;53.532;49.398;2022-10-20T11:36:02;4.28;;;2.03;;
69714;SDS011;56981;53.532;49.398;2022-10-20T11:38:48;3.08;;;1.90;;
69714;SDS011;56981;53.532;49.398;2022-10-20T11:41:17;1.42;;;1.20;;
69714;SDS011;56981;53.532;49.398;2022-10-20T11:44:05;4.78;;;1.98;;
69714;SDS011;56981;53.532;49.398;2022-10-20T11:49:14;5.03;;;1.75;;
69714;SDS011;56981;53.532;49.398;2022-10-20T12:05:34;2.83;;;1.77;;
69714;SDS011;56981;53.532;49.398;2022-10-20T12:19:25;2.08;;;1.75;;
69714;SDS011;56981;53.532;49.398;2022-10-20T12:22:02;3.25;;;1.63;;
69714;SDS011;56981;53.532;49.398;2022-10-20T12:27:20;4.68;;;1.63;;
69714;SDS011;56981;53.532;49.398;2022-10-20T12:29:55;3.42;;;2.20;;
69714;SDS011;56981;53.532;49.398;2022-10-20T12:34:59;5.47;;;1.42;;
69714;SDS011;56981;53.532;49.398;2022-10-20T12:37:28;2.50;;;1.25;;
69714;SDS011;56981;53.532;49.398;2022-10-20T12:39:58;2.58;;;1.30;;
69714;SDS011;56981;53.532;49.398;2022-10-20T12:42:47;4.95;;;2.85;;
69714;SDS011;56981;53.532;49.398;2022-10-20T12:48:01;3.33;;;1.52;;
69714;SDS011;56981;53.532;49.398;2022-10-20T12:53:11;2.85;;;1.50;;
69714;SDS011;56981;53.532;49.398;2022-10-20T12:55:47;4.93;;;1.63;;
69714;SDS011;56981;53.532;49.398;2022-10-20T12:58:35;5.53;;;1.80;;
69714;SDS011;56981;53.532;49.398;2022-10-20T13:01:05;4.45;;;1.60;;
69714;SDS011;56981;53.532;49.398;2022-10-20T13:06:37;2.58;;;1.75;;
69714;SDS011;56981;53.532;49.398;2022-10-20T13:09:21;1.85;;;1.75;;
69714;SDS011;56981;53.532;49.398;2022-10-20T13:11:56;3.63;;;1.92;;
69714;SDS011;56981;53.532;49.398;2022-10-20T13:14:49;4.32;;;2.03;;
69714;SDS011;56981;53.532;49.398;2022-10-20T13:17:21;5.20;;;2.50;;
69714;SDS011;56981;53.532;49.398;2022-10-20T13:22:54;2.30;;;1.40;;
69714;SDS011;56981;53.532;49.398;2022-10-20T13:25:32;2.30;;;1.20;;
69714;SDS011;56981;53.532;49.398;2022-10-20T13:30:58;2.03;;;1.50;;
69714;SDS011;56981;53.532;49.398;2022-10-20T13:39:11;3.17;;;1.33;;
69714;SDS011;56981;53.532;49.398;2022-10-20T13:41:53;3.03;;;1.45;;
69714;SDS011;56981;53.532;49.398;2022-10-20T13:50:43;2.00;;;1.33;;
69714;SDS011;56981;53.532;49.398;2022-10-20T13:55:57;3.25;;;1.33;;
69714;SDS011;56981;53.532;49.398;2022-10-20T13:58:29;1.80;;;1.00;;
69714;SDS011;56981;53.532;49.398;2022-10-20T14:01:03;1.73;;;1.40;;
69714;SDS011;56981;53.532;49.398;2022-10-20T14:03:32;1.58;;;1.10;;
69714;SDS011;56981;53.532;49.398;2022-10-20T14:06:26;2.10;;;1.17;;
69714;SDS011;56981;53.532;49.398;2022-10-20T14:09:04;1.98;;;1.10;;
69714;SDS011;56981;53.532;49.398;2022-10-20T14:11:35;2.00;;;1.30;;
69714;SDS011;56981;53.532;49.398;2022-10-20T14:14:01;1.15;;;1.08;;
69714;SDS011;56981;53.532;49.398;2022-10-20T14:16:28;1.30;;;1.10;;
69714;SDS011;56981;53.532;49.398;2022-10-20T14:19:06;2.15;;;1.27;;
69714;SDS011;56981;53.532;49.398;2022-10-20T14:21:44;2.40;;;1.85;;
69714;SDS011;56981;53.532;49.398;2022-10-20T14:24:17;4.05;;;1.70;;
69714;SDS011;56981;53.532;49.398;2022-10-20T14:26:50;3.53;;;2.60;;
69714;SDS011;56981;53.532;49.398;2022-10-20T14:29:17;6.15;;;2.50;;
69714;SDS011;56981;53.532;49.398;2022-10-20T14:31:47;5.15;;;2.70;;
69714;SDS011;56981;53.532;49.398;2022-10-20T14:34:22;5.20;;;2.45;;
69714;SDS011;56981;53.532;49.398;2022-10-20T14:36:50;5.75;;;2.75;;
69714;SDS011;56981;53.532;49.398;2022-10-20T14:41:57;4.55;;;3.17;;
69714;SDS011;56981;53.532;49.398;2022-10-20T14:44:25;3.75;;;2.10;;
69714;SDS011;56981;53.532;49.398;2022-10-20T14:46:54;2.75;;;1.75;;
69714;SDS011;56981;53.532;49.398;2022-10-20T14:49:24;4.15;;;2.35;;
69714;SDS011;56981;53.532;49.398;2022-10-20T14:52:03;6.82;;;2.38;;
69714;SDS011;56981;53.532;49.398;2022-10-20T14:54:35;4.10;;;2.60;;
69714;SDS011;56981;53.532;49.398;2022-10-20T14:59:34;4.72;;;2.40;;
69714;SDS011;56981;53.532;49.398;2022-10-20T15:02:04;3.30;;;2.10;;
69714;SDS011;56981;53.532;49.398;2022-10-20T15:04:43;3.20;;;2.42;;
69714;SDS011;56981;53.532;49.398;2022-10-20T15:07:15;3.22;;;2.20;;
69714;SDS011;56981;53.532;49.398;2022-10-20T15:09:58;2.70;;;1.75;;
69714;SDS011;56981;53.532;49.398;2022-10-20T15:17:43;3.40;;;2.00;;
69714;SDS011;56981;53.532;49.398;2022-10-20T15:22:50;2.90;;;1.80;;
69714;SDS011;56981;53.532;49.398;2022-10-20T15:25:17;2.25;;;1.45;;
69714;SDS011;56981;53.532;49.398;2022-10-20T15:27:43;1.40;;;1.30;;
69714;SDS011;56981;53.532;49.398;2022-10-20T15:30:17;1.90;;;1.38;;
69714;SDS011;56981;53.532;49.398;2022-10-20T15:32:45;1.70;;;1.60;;
69714;SDS011;56981;53.532;49.398;2022-10-20T15:35:16;1.88;;;1.33;;
69714;SDS011;56981;53.532;49.398;2022-10-20T15:37:47;2.72;;;1.73;;
69714;SDS011;56981;53.532;49.398;2022-10-20T15:40:14;2.35;;;1.58;;
69714;SDS011;56981;53.532;49.398;2022-10-20T15:42:41;4.45;;;1.73;;
69714;SDS011;56981;53.532;49.398;2022-10-20T15:45:15;2.58;;;1.67;;
69714;SDS011;56981;53.532;49.398;2022-10-20T15:47:45;2.60;;;1.90;;
69714;SDS011;56981;53.532;49.398;2022-10-20T15:50:12;1.77;;;1.50;;
69714;SDS011;56981;53.532;49.398;2022-10-20T15:52:42;8.02;;;5.68;;
69714;SDS011;56981;53.532;49.398;2022-10-20T15:55:31;6.13;;;3.75;;
69714;SDS011;56981;53.532;49.398;2022-10-20T15:57:57;2.33;;;1.90;;
69714;SDS011;56981;53.532;49.398;2022-10-20T16:00:24;2.47;;;2.15;;
69714;SDS011;56981;53.532;49.398;2022-10-20T16:02:52;5.55;;;2.72;;
69714;SDS011;56981;53.532;49.398;2022-10-20T16:05:19;3.55;;;1.85;;
69714;SDS011;56981;53.532;49.398;2022-10-20T16:07:48;2.42;;;1.73;;
69714;SDS011;56981;53.532;49.398;2022-10-20T16:10:17;2.22;;;1.92;;
69714;SDS011;56981;53.532;49.398;2022-10-20T16:12:46;3.45;;;2.00;;
69714;SDS011;56981;53.532;49.398;2022-10-20T16:15:13;3.40;;;1.90;;
69714;SDS011;56981;53.532;49.398;2022-10-20T16:17:40;6.47;;;2.95;;
69714;SDS011;56981;53.532;49.398;2022-10-20T16:20:06;5.05;;;3.05;;
69714;SDS011;56981;53.532;49.398;2022-10-20T16:22:33;2.03;;;1.83;;
69714;SDS011;56981;53.532;49.398;2022-10-20T16:25:00;1.80;;;1.10;;
69714;SDS011;56981;53.532;49.398;2022-10-20T16:27:27;3.40;;;1.60;;
69714;SDS011;56981;53.532;49.398;2022-10-20T16:29:54;2.95;;;1.75;;
69714;SDS011;56981;53.532;49.398;2022-10-20T16:32:20;6.13;;;2.15;;
69714;SDS011;56981;53.532;49.398;2022-10-20T16:34:47;2.72;;;1.92;;
69714;SDS011;56981;53.532;49.398;2022-10-20T16:37:14;3.33;;;1.77;;
69714;SDS011;56981;53.532;49.398;2022-10-20T16:39:40;2.38;;;2.03;;
69714;SDS011;56981;53.532;49.398;2022-10-20T16:42:07;5.35;;;1.80;;
69714;SDS011;56981;53.532;49.398;2022-10-20T16:44:35;2.92;;;1.85;;
69714;SDS011;56981;53.532;49.398;2022-10-20T16:47:02;1.75;;;1.63;;
69714;SDS011;56981;53.532;49.398;2022-10-20T16:49:28;2.05;;;1.70;;
69714;SDS011;56981;53.532;49.398;2022-10-20T16:51:54;2.10;;;1.58;;
69714;SDS011;56981;53.532;49.398;2022-10-20T16:54:21;3.40;;;2.30;;
69714;SDS011;56981;53.532;49.398;2022-10-20T16:56:47;5.00;;;1.90;;
69714;SDS011;56981;53.532;49.398;2022-10-20T16:59:13;2.00;;;1.60;;
69714;SDS011;56981;53.532;49.398;2022-10-20T17:01:40;1.80;;;1.70;;
69714;SDS011;56981;53.532;49.398;2022-10-20T17:04:06;3.42;;;1.95;;
69714;SDS011;56981;53.532;49.398;2022-10-20T17:06:33;3.05;;;2.17;;
69714;SDS011;56981;53.532;49.398;2022-10-20T17:08:59;2.60;;;1.70;;
69714;SDS011;56981;53.532;49.398;2022-10-20T17:11:28;2.65;;;1.42;;
69714;SDS011;56981;53.532;49.398;2022-10-20T17:13:56;1.48;;;1.33;;
69714;SDS011;56981;53.532;49.398;2022-10-20T17:16:28;1.45;;;1.15;;